Time;durP1;ratioP1;P1;durP2;ratioP2;P2;SDS_P1;SDS_P2;PMS_P1;PMS_P2;Temp;Humidity;BMP_temperature;BMP_pressure;BME280_temperature;BME280_humidity;BME280_pressure;Samples;Min_cycle;Max_cycle;Signal;HPM_P1;HPM_P2
2022/06/22 00:01:32;;;;;;;;;11.00;10.50;;;;;22.73;42.99;100456.25;5100352;27;45495;-48
2022/06/22 00:04:00;;;;;;;;;11.50;8.50;;;;;22.65;42.75;100448.00;5105669;27;45305;-47
2022/06/22 00:06:34;;;;;;;;;14.00;10.75;;;;;22.62;42.70;100447.41;5104567;27;46094;-48
2022/06/22 00:09:00;;;;;;;;;13.50;9.75;;;;;22.59;43.02;100455.66;5114823;27;45594;-49
2022/06/22 00:11:26;;;;;;;;;11.25;10.00;;;;;22.58;43.49;100451.31;5109597;27;45496;-47
2022/06/22 00:13:55;;;;;;;;;11.75;9.50;;;;;22.56;43.54;100451.44;5100872;27;45508;-47
2022/06/22 00:16:27;;;;;;;;;11.50;10.00;;;;;22.52;43.44;100442.84;5105971;27;46979;-48
2022/06/22 00:18:53;;;;;;;;;9.75;9.00;;;;;22.48;43.05;100445.88;5104979;27;45775;-47
2022/06/22 00:21:24;;;;;;;;;11.00;11.00;;;;;22.43;43.41;100456.06;5108427;27;45688;-48
2022/06/22 00:23:57;;;;;;;;;11.00;10.50;;;;;22.36;43.24;100437.06;5106905;27;45559;-50
2022/06/22 00:26:22;;;;;;;;;12.25;12.00;;;;;22.31;43.50;100445.44;5105714;27;46221;-47
2022/06/22 00:28:53;;;;;;;;;12.00;11.00;;;;;22.30;43.21;100430.41;5101302;27;45353;-47
2022/06/22 00:31:35;;;;;;;;;10.50;10.25;;;;;22.26;43.33;100438.78;5104069;27;45505;-52
2022/06/22 00:34:02;;;;;;;;;14.00;9.50;;;;;22.23;43.52;100442.50;5103824;27;45313;-48
2022/06/22 00:36:34;;;;;;;;;13.25;11.75;;;;;22.21;43.75;100432.97;5104983;27;45428;-47
2022/06/22 00:39:18;;;;;;;;;16.75;10.25;;;;;22.19;43.84;100439.25;5102708;27;45402;-47
2022/06/22 00:41:50;;;;;;;;;10.50;10.00;;;;;22.18;43.69;100434.03;5105094;27;45771;-48
2022/06/22 00:44:16;;;;;;;;;13.75;9.50;;;;;22.13;44.02;100438.88;5100901;27;45515;-49
2022/06/22 00:46:50;;;;;;;;;11.25;10.75;;;;;22.05;44.64;100436.00;5103414;27;45464;-48
2022/06/22 00:49:18;;;;;;;;;13.75;9.00;;;;;21.97;44.64;100432.16;5100651;27;45517;-53
2022/06/22 00:51:44;;;;;;;;;14.75;12.00;;;;;21.93;44.56;100430.66;5102396;27;45691;-51
2022/06/22 00:54:16;;;;;;;;;12.25;10.00;;;;;21.89;44.43;100434.56;5103208;27;45640;-47
2022/06/22 00:56:49;;;;;;;;;10.00;10.00;;;;;21.83;44.35;100439.53;5109293;27;46475;-51
2022/06/22 00:59:18;;;;;;;;;13.00;10.25;;;;;21.78;44.83;100430.09;5087544;27;45852;-50
2022/06/22 01:01:56;;;;;;;;;13.00;8.25;;;;;21.74;45.12;100430.44;5113465;27;45399;-53
2022/06/22 01:04:26;;;;;;;;;15.25;11.75;;;;;21.69;45.25;100428.16;5098758;27;45437;-48
2022/06/22 01:07:08;;;;;;;;;11.75;9.75;;;;;21.66;45.08;100433.72;5102487;27;46228;-48
2022/06/22 01:09:59;;;;;;;;;15.00;13.50;;;;;21.64;45.44;100425.00;5102993;27;45962;-49
2022/06/22 01:12:48;;;;;;;;;14.00;11.50;;;;;21.59;45.54;100435.16;5102086;27;45219;-49
2022/06/22 01:15:35;;;;;;;;;13.00;11.00;;;;;21.55;44.83;100433.72;5083089;27;45445;-52
2022/06/22 01:18:01;;;;;;;;;12.50;11.25;;;;;21.52;45.20;100426.81;5113119;27;45493;-47
2022/06/22 01:20:35;;;;;;;;;14.50;12.25;;;;;21.51;45.69;100425.09;5111161;27;45502;-48
2022/06/22 01:23:16;;;;;;;;;16.00;11.00;;;;;21.48;45.45;100428.00;5108094;27;46840;-49
2022/06/22 01:25:50;;;;;;;;;16.25;11.50;;;;;21.46;45.32;100423.75;5115384;27;45522;-47
2022/06/22 01:28:15;;;;;;;;;12.50;12.00;;;;;21.44;45.36;100429.16;5104395;27;45563;-48
2022/06/22 01:30:44;;;;;;;;;12.25;9.25;;;;;21.43;45.82;100422.16;5101135;27;61475;-50
2022/06/22 01:33:33;;;;;;;;;13.00;11.50;;;;;21.39;45.27;100428.72;5101840;27;45423;-47
2022/06/22 01:36:02;;;;;;;;;15.00;12.00;;;;;21.37;45.68;100427.94;5105977;27;45551;-47
2022/06/22 01:38:30;;;;;;;;;14.75;11.25;;;;;21.32;45.95;100422.13;5100906;27;46476;-49
2022/06/22 01:41:26;;;;;;;;;14.00;12.00;;;;;21.26;45.85;100412.81;5104962;27;45931;-48
2022/06/22 01:43:56;;;;;;;;;11.75;11.75;;;;;21.24;45.37;100412.94;5103879;27;45286;-51
2022/06/22 01:46:33;;;;;;;;;13.75;11.00;;;;;21.24;45.51;100420.91;5107207;27;45409;-51
2022/06/22 01:49:12;;;;;;;;;16.75;13.50;;;;;21.24;45.34;100428.06;5105844;27;45442;-47
2022/06/22 01:51:48;;;;;;;;;12.50;12.50;;;;;21.23;45.97;100423.72;5110249;27;45577;-50
2022/06/22 01:54:25;;;;;;;;;14.75;13.00;;;;;21.21;45.58;100433.59;5102557;27;45468;-49
2022/06/22 01:56:52;;;;;;;;;15.50;12.00;;;;;21.23;45.86;100445.00;5105922;27;45408;-49
2022/06/22 01:59:43;;;;;;;;;8.75;8.75;;;;;21.23;45.44;100423.72;5113228;27;46147;-50
2022/06/22 02:02:18;;;;;;;;;14.75;14.00;;;;;21.24;45.87;100436.88;5102056;27;45486;-51
2022/06/22 02:04:50;;;;;;;;;11.00;11.00;;;;;21.25;45.86;100443.06;5105752;27;45550;-49
2022/06/22 02:10:13;;;;;;;;;17.25;14.00;;;;;21.29;45.15;100446.34;5102779;27;45473;-46
2022/06/22 02:12:59;;;;;;;;;17.00;12.75;;;;;21.31;45.98;100452.41;5102224;27;45337;-47
2022/06/22 02:15:40;;;;;;;;;12.50;10.75;;;;;21.32;45.71;100457.59;5104459;27;45502;-49
2022/06/22 02:18:10;;;;;;;;;16.25;14.25;;;;;21.37;45.50;100466.09;5104627;27;45464;-46
2022/06/22 02:20:37;;;;;;;;;14.75;12.50;;;;;21.38;45.29;100456.28;5113151;27;45412;-50
2022/06/22 02:23:11;;;;;;;;;12.50;12.50;;;;;21.37;46.13;100451.91;5106779;27;45320;-48
2022/06/22 02:25:44;;;;;;;;;15.00;13.00;;;;;21.35;45.61;100452.03;5113822;27;45418;-47
2022/06/22 02:28:10;;;;;;;;;17.00;11.00;;;;;21.35;46.08;100445.84;5111911;27;45327;-49
2022/06/22 02:30:35;;;;;;;;;16.00;14.75;;;;;21.33;45.98;100437.16;5106361;27;45208;-45
2022/06/22 02:33:01;;;;;;;;;12.00;12.00;;;;;21.28;45.51;100421.53;5103213;27;68858;-50
2022/06/22 02:35:26;;;;;;;;;18.75;12.75;;;;;21.27;45.88;100416.34;5104288;27;45818;-47
2022/06/22 02:38:05;;;;;;;;;15.00;12.00;;;;;21.27;45.80;100419.00;5103719;27;45214;-47
2022/06/22 02:44:29;;;;;;;;;15.50;13.25;;;;;21.26;45.88;100425.28;5108130;27;46135;-47
2022/06/22 02:46:04;;;;;;;;;11.75;10.25;;;;;21.18;45.85;100424.06;5112803;27;45398;-46
2022/06/22 02:48:37;;;;;;;;;14.00;12.25;;;;;21.15;45.89;100434.94;5104869;27;66559;-46
2022/06/22 02:51:16;;;;;;;;;14.25;11.50;;;;;21.15;45.87;100434.09;5103219;27;46349;-48
2022/06/22 02:53:42;;;;;;;;;13.00;11.25;;;;;21.14;45.87;100433.25;5105760;27;45266;-47
2022/06/22 02:56:14;;;;;;;;;12.50;10.00;;;;;21.16;45.60;100436.63;5105197;27;45566;-48
2022/06/22 02:58:40;;;;;;;;;16.50;13.50;;;;;21.19;45.46;100424.91;5104454;27;45481;-48
2022/06/22 03:01:12;;;;;;;;;13.00;11.25;;;;;21.22;45.59;100422.00;5107111;27;45525;-49
2022/06/22 03:03:38;;;;;;;;;16.00;13.50;;;;;21.20;46.48;100408.81;5105548;27;45407;-48
2022/06/22 03:06:09;;;;;;;;;15.00;13.00;;;;;21.14;46.02;100403.09;5103114;27;45401;-48
2022/06/22 03:08:34;;;;;;;;;13.50;12.00;;;;;21.09;46.78;100394.63;5107339;27;45457;-47
2022/06/22 03:11:03;;;;;;;;;11.50;11.00;;;;;21.06;46.24;100385.09;5108105;27;65854;-46
2022/06/22 03:13:30;;;;;;;;;11.75;11.75;;;;;21.01;46.72;100377.44;5107890;27;45818;-48
2022/06/22 03:15:56;;;;;;;;;11.25;10.00;;;;;20.98;46.44;100380.34;5106119;27;45490;-49
2022/06/22 03:18:26;;;;;;;;;15.00;12.00;;;;;20.95;46.45;100387.72;5099424;27;45606;-47
2022/06/22 03:21:01;;;;;;;;;13.50;12.75;;;;;20.93;46.24;100386.97;5107103;27;45614;-48
2022/06/22 03:23:43;;;;;;;;;14.00;12.00;;;;;20.87;46.95;100388.28;5108592;27;46081;-50
2022/06/22 03:26:23;;;;;;;;;14.00;14.00;;;;;20.81;47.32;100380.78;5113745;27;45397;-47
2022/06/22 03:28:55;;;;;;;;;19.25;15.50;;;;;20.72;47.02;100369.03;5105409;27;45324;-46
2022/06/22 03:31:25;;;;;;;;;16.25;14.00;;;;;20.65;46.99;100368.63;5095653;27;45548;-46
2022/06/22 03:34:34;;;;;;;;;10.50;10.25;;;;;20.61;46.78;100367.19;5106748;27;45772;-48
2022/06/22 03:37:10;;;;;;;;;14.75;12.25;;;;;20.56;47.07;100357.84;5103284;27;45518;-46
2022/06/22 03:39:38;;;;;;;;;15.00;13.25;;;;;20.53;47.30;100369.53;5104978;27;45302;-49
2022/06/22 03:42:13;;;;;;;;;10.00;9.50;;;;;20.49;46.92;100376.03;5086020;27;46044;-48
2022/06/22 03:44:50;;;;;;;;;17.25;13.00;;;;;20.48;47.23;100367.19;5107030;27;45374;-48
2022/06/22 03:47:24;;;;;;;;;18.50;15.00;;;;;20.48;47.59;100359.22;5087496;27;45327;-49
2022/06/22 03:50:01;;;;;;;;;11.50;11.50;;;;;20.44;47.19;100360.44;5103929;27;45588;-48
2022/06/22 03:52:31;;;;;;;;;14.50;12.00;;;;;20.44;46.95;100364.91;5101327;27;46075;-49
2022/06/22 03:55:00;;;;;;;;;14.50;13.00;;;;;20.45;47.01;100356.81;5101614;27;45867;-48
2022/06/22 03:57:27;;;;;;;;;13.25;13.00;;;;;20.47;47.03;100357.56;5114198;27;45296;-47
2022/06/22 03:59:55;;;;;;;;;14.75;14.25;;;;;20.50;47.20;100351.13;5109141;27;45469;-49
2022/06/22 04:02:22;;;;;;;;;15.25;14.00;;;;;20.49;47.15;100357.44;5110966;27;46082;-52
2022/06/22 04:04:53;;;;;;;;;17.25;13.00;;;;;20.51;47.18;100362.66;5108374;27;45348;-49
2022/06/22 04:07:18;;;;;;;;;14.00;12.50;;;;;20.52;46.83;100365.16;5114998;27;45366;-47
2022/06/22 04:09:52;;;;;;;;;14.25;13.00;;;;;20.55;46.75;100364.09;5085501;27;45615;-50
2022/06/22 04:12:39;;;;;;;;;15.00;12.50;;;;;20.53;47.15;100366.88;5111795;27;45702;-53
2022/06/22 04:15:31;;;;;;;;;14.00;12.50;;;;;20.51;47.05;100373.28;5092442;27;45505;-47
2022/06/22 04:18:05;;;;;;;;;15.50;14.75;;;;;20.44;46.87;100375.53;5086586;27;45257;-48
2022/06/22 04:20:52;;;;;;;;;17.25;15.00;;;;;20.42;47.14;100374.81;5101588;27;45501;-47
2022/06/22 04:23:23;;;;;;;;;15.25;14.00;;;;;20.41;46.92;100367.78;5109421;27;45455;-51
2022/06/22 04:25:50;;;;;;;;;16.75;14.25;;;;;20.39;47.99;100367.88;5104786;27;45893;-48
2022/06/22 04:28:17;;;;;;;;;15.75;14.00;;;;;20.35;47.34;100376.22;5109306;27;45466;-46
2022/06/22 04:30:47;;;;;;;;;15.75;14.50;;;;;20.32;47.23;100390.56;5102222;27;45478;-50
2022/06/22 04:33:52;;;;;;;;;17.00;15.25;;;;;20.33;47.21;100394.06;5099331;27;47243;-47
2022/06/22 04:36:25;;;;;;;;;12.75;12.75;;;;;20.33;46.96;100405.56;5098174;27;45401;-46
2022/06/22 04:38:55;;;;;;;;;16.50;12.00;;;;;20.36;47.21;100391.19;5102106;27;45401;-49
2022/06/22 04:41:29;;;;;;;;;17.50;14.25;;;;;20.38;47.27;100397.22;5103576;27;45381;-47
2022/06/22 04:43:58;;;;;;;;;11.25;10.25;;;;;20.40;46.98;100387.38;5106288;27;46095;-47
2022/06/22 04:46:30;;;;;;;;;12.00;10.50;;;;;20.41;47.06;100387.22;5113807;27;45187;-45
2022/06/22 04:48:58;;;;;;;;;13.00;12.00;;;;;20.37;47.08;100382.28;5100918;27;45393;-49
2022/06/22 04:51:28;;;;;;;;;14.75;12.75;;;;;20.33;47.09;100388.75;5105463;27;45443;-50
2022/06/22 04:54:03;;;;;;;;;15.25;12.00;;;;;20.32;47.24;100384.41;5103679;27;45626;-47
2022/06/22 04:56:32;;;;;;;;;12.00;12.00;;;;;20.32;46.95;100382.59;5104547;27;45808;-50
2022/06/22 04:58:58;;;;;;;;;14.25;13.25;;;;;20.32;47.67;100371.97;5101607;27;45321;-48
2022/06/22 05:01:30;;;;;;;;;16.25;13.50;;;;;20.30;47.61;100369.41;5102332;27;45578;-48
2022/06/22 05:03:59;;;;;;;;;16.25;13.50;;;;;20.28;47.54;100381.13;5105990;27;46127;-47
2022/06/22 05:06:32;;;;;;;;;14.50;13.25;;;;;20.27;47.36;100374.97;5104917;27;45497;-47
2022/06/22 05:09:12;;;;;;;;;20.00;14.75;;;;;20.24;47.69;100369.03;5105339;27;45396;-50
2022/06/22 05:11:42;;;;;;;;;19.50;15.75;;;;;20.24;47.53;100380.50;5086295;27;45610;-47
2022/06/22 05:14:24;;;;;;;;;17.50;16.00;;;;;20.28;47.47;100378.47;5106017;27;46435;-51
2022/06/22 05:16:58;;;;;;;;;15.00;14.25;;;;;20.25;47.39;100378.69;5104405;27;45334;-47
2022/06/22 05:19:28;;;;;;;;;17.25;16.00;;;;;20.24;47.36;100377.84;5104284;27;46111;-51
2022/06/22 05:21:57;;;;;;;;;14.25;13.75;;;;;20.26;48.12;100364.47;5101383;27;46052;-46
2022/06/22 05:24:24;;;;;;;;;23.50;14.25;;;;;20.26;47.64;100372.44;5100360;27;45547;-51
2022/06/22 05:26:51;;;;;;;;;15.75;14.25;;;;;20.25;47.85;100390.16;5094894;27;45412;-47
2022/06/22 05:29:21;;;;;;;;;16.25;14.25;;;;;20.28;47.45;100381.13;5099761;27;45330;-49
2022/06/22 05:31:51;;;;;;;;;17.75;16.25;;;;;20.28;47.62;100383.78;5100808;27;45377;-48
2022/06/22 05:34:22;;;;;;;;;20.50;14.75;;;;;20.28;47.40;100379.31;5105986;27;45317;-50
2022/06/22 05:36:50;;;;;;;;;15.50;13.00;;;;;20.30;47.46;100368.56;5094742;27;45382;-48
2022/06/22 05:39:15;;;;;;;;;13.00;13.00;;;;;20.29;47.38;100361.56;5107654;27;45248;-48
2022/06/22 05:41:45;;;;;;;;;19.50;14.25;;;;;20.24;47.78;100369.88;5106390;27;45635;-46
2022/06/22 05:44:15;;;;;;;;;19.00;16.25;;;;;20.23;47.64;100364.69;5106208;27;46381;-49
2022/06/22 05:46:52;;;;;;;;;15.00;14.25;;;;;20.21;48.05;100371.91;5100355;27;45271;-46
2022/06/22 05:49:19;;;;;;;;;18.25;16.00;;;;;20.13;48.00;100368.97;5106215;27;45577;-46
2022/06/22 05:51:51;;;;;;;;;17.00;14.25;;;;;20.10;48.08;100370.88;5111272;27;45361;-46
2022/06/22 05:54:32;;;;;;;;;16.00;13.50;;;;;20.09;47.86;100368.34;5106388;27;46275;-46
2022/06/22 05:57:26;;;;;;;;;17.50;14.00;;;;;20.07;47.86;100365.78;5101322;27;46155;-47
2022/06/22 06:00:21;;;;;;;;;18.75;15.25;;;;;20.09;48.09;100378.97;5100598;27;45520;-47
2022/06/22 06:03:03;;;;;;;;;17.25;16.00;;;;;20.09;47.61;100366.53;5099236;27;45349;-47
2022/06/22 06:05:44;;;;;;;;;18.50;15.50;;;;;20.06;48.27;100363.25;5103910;27;46282;-48
2022/06/22 06:08:28;;;;;;;;;17.00;14.00;;;;;20.03;48.35;100364.31;5103405;27;45924;-48
2022/06/22 06:10:53;;;;;;;;;18.75;16.00;;;;;19.99;48.58;100356.69;5081288;27;45559;-46
2022/06/22 06:13:21;;;;;;;;;19.00;16.50;;;;;19.96;48.71;100360.41;5100376;27;45425;-47
2022/06/22 06:15:50;;;;;;;;;16.50;14.25;;;;;19.92;48.45;100357.13;5098901;27;46966;-48
2022/06/22 06:18:19;;;;;;;;;16.75;15.00;;;;;19.87;48.22;100367.25;5100933;27;45960;-46
2022/06/22 06:20:48;;;;;;;;;16.25;15.25;;;;;19.83;48.85;100367.56;5085298;27;45851;-49
2022/06/22 06:23:22;;;;;;;;;16.75;15.00;;;;;19.80;48.69;100368.66;5108871;27;45585;-49
2022/06/22 06:28:40;;;;;;;;;19.50;17.00;;;;;19.82;48.66;100371.19;5102769;27;45400;-50
2022/06/22 06:31:10;;;;;;;;;17.50;16.00;;;;;19.82;49.20;100369.38;5086546;27;45307;-46
2022/06/22 06:33:37;;;;;;;;;16.50;16.25;;;;;19.82;49.15;100360.56;5113133;27;45447;-46
2022/06/22 06:36:13;;;;;;;;;18.00;15.00;;;;;19.83;48.78;100360.47;5106281;27;45705;-47
2022/06/22 06:38:42;;;;;;;;;18.25;16.00;;;;;19.86;48.93;100362.88;5113676;27;45400;-47
2022/06/22 06:41:22;;;;;;;;;16.25;14.75;;;;;19.92;48.42;100372.22;5089289;27;45310;-49
2022/06/22 06:43:49;;;;;;;;;16.50;12.00;;;;;19.98;48.69;100379.75;5109864;27;45334;-47
2022/06/22 06:46:24;;;;;;;;;24.50;18.00;;;;;20.03;48.35;100371.47;5102283;27;47398;-49
2022/06/22 06:48:57;;;;;;;;;16.75;13.00;;;;;20.07;48.68;100365.78;5104020;27;45902;-48
2022/06/22 06:51:24;;;;;;;;;19.75;15.75;;;;;20.13;48.47;100367.16;5102169;27;45412;-49
2022/06/22 06:53:55;;;;;;;;;21.75;15.25;;;;;20.17;48.59;100373.94;5102199;27;45538;-49
2022/06/22 06:56:28;;;;;;;;;13.75;10.75;;;;;20.35;48.74;100377.06;5101506;27;47098;-63
2022/06/22 06:59:03;;;;;;;;;11.00;9.50;;;;;20.75;48.73;100382.09;5102742;27;46062;-63
2022/06/22 07:01:34;;;;;;;;;10.75;9.00;;;;;21.12;48.25;100375.78;5107501;27;45347;-65
2022/06/22 07:04:07;;;;;;;;;11.00;9.50;;;;;21.49;47.96;100391.56;5104418;27;44833;-61
2022/06/22 07:06:33;;;;;;;;;9.50;7.50;;;;;21.82;47.72;100396.06;5109843;27;45598;-63
2022/06/22 07:09:10;;;;;;;;;11.00;10.00;;;;;22.12;47.39;100406.06;5104781;27;45740;-64
2022/06/22 07:11:43;;;;;;;;;9.50;9.00;;;;;22.39;46.41;100402.16;5106597;27;45415;-63
2022/06/22 07:14:18;;;;;;;;;6.50;6.00;;;;;22.65;46.38;100388.50;5106239;27;45731;-63
2022/06/22 07:16:43;;;;;;;;;13.00;9.25;;;;;22.87;46.19;100385.69;5102994;27;45442;-63
2022/06/22 07:19:21;;;;;;;;;9.25;8.00;;;;;23.06;45.99;100373.50;5105504;27;45514;-63
2022/06/22 07:22:05;;;;;;;;;11.75;8.50;;;;;23.26;45.65;100375.28;5101852;27;45642;-64
2022/06/22 07:24:45;;;;;;;;;7.50;7.50;;;;;23.44;44.94;100367.53;5109969;27;45425;-64
2022/06/22 07:27:22;;;;;;;;;7.25;7.25;;;;;23.59;44.94;100370.69;5103961;27;46229;-64
2022/06/22 07:29:55;;;;;;;;;10.25;8.00;;;;;23.73;44.90;100374.81;5102221;27;45881;-63
2022/06/22 07:32:48;;;;;;;;;11.00;8.25;;;;;23.86;44.17;100366.56;5111017;27;45318;-63
2022/06/22 07:35:34;;;;;;;;;8.25;8.00;;;;;23.97;44.49;100368.28;5107156;27;45252;-63
2022/06/22 07:38:37;;;;;;;;;8.00;8.00;;;;;24.08;44.28;100370.81;5095171;27;45427;-64
2022/06/22 07:41:18;;;;;;;;;7.75;7.75;;;;;24.16;43.93;100371.00;5101603;27;45312;-63
2022/06/22 07:43:46;;;;;;;;;8.75;7.00;;;;;24.24;44.16;100391.69;5103203;27;45463;-63
2022/06/22 07:46:37;;;;;;;;;10.25;8.75;;;;;24.28;43.73;100395.78;5106363;27;45385;-64
2022/06/22 07:49:53;;;;;;;;;6.00;6.00;;;;;24.35;43.72;100390.75;5088110;27;45459;-64
2022/06/22 07:52:25;;;;;;;;;6.25;5.00;;;;;24.40;43.66;100391.13;5096803;27;45632;-63
2022/06/22 07:54:54;;;;;;;;;6.75;5.75;;;;;24.44;43.13;100389.91;5107496;27;45344;-64
2022/06/22 07:57:34;;;;;;;;;7.00;6.00;;;;;24.48;43.54;100391.28;5106323;27;45452;-63
2022/06/22 08:00:17;;;;;;;;;6.25;6.00;;;;;24.51;43.26;100390.19;5104965;27;47190;-64
2022/06/22 08:02:54;;;;;;;;;6.50;6.25;;;;;24.53;43.09;100399.78;5103172;27;45365;-64
2022/06/22 08:05:23;;;;;;;;;5.25;5.25;;;;;24.56;43.04;100396.84;5110027;27;45488;-64
2022/06/22 08:07:56;;;;;;;;;5.00;4.00;;;;;24.60;42.92;100413.44;5111914;27;45349;-63
2022/06/22 08:10:27;;;;;;;;;5.75;4.75;;;;;24.61;42.98;100410.63;5104260;27;45420;-63
2022/06/22 08:13:06;;;;;;;;;5.50;4.50;;;;;24.66;42.90;100418.22;5089517;27;45436;-63
2022/06/22 08:15:36;;;;;;;;;6.25;4.25;;;;;24.70;42.84;100422.34;5103633;27;45499;-63
2022/06/22 08:18:01;;;;;;;;;6.50;4.25;;;;;24.74;42.99;100414.88;5104810;27;45398;-63
2022/06/22 08:20:30;;;;;;;;;4.00;4.00;;;;;24.77;42.72;100415.44;5105968;27;63686;-63
2022/06/22 08:22:58;;;;;;;;;3.75;3.00;;;;;24.80;42.64;100411.63;5125874;27;45310;-63
2022/06/22 08:25:23;;;;;;;;;4.50;4.00;;;;;24.85;42.51;100421.91;5112022;27;45436;-61
2022/06/22 08:27:50;;;;;;;;;1.75;1.75;;;;;24.87;42.60;100414.56;5117566;27;45844;-64
2022/06/22 08:30:16;;;;;;;;;4.25;3.25;;;;;24.89;42.43;100409.91;5088239;27;46187;-63
2022/06/22 08:32:54;;;;;;;;;3.00;3.00;;;;;24.90;42.55;100416.97;5106089;27;45451;-63
2022/06/22 08:35:43;;;;;;;;;5.00;2.25;;;;;24.93;42.64;100422.03;5101972;27;45284;-63
2022/06/22 08:38:26;;;;;;;;;4.75;3.25;;;;;24.94;42.54;100415.69;5107341;27;45529;-63
2022/06/22 08:41:29;;;;;;;;;5.50;3.25;;;;;24.95;42.38;100410.19;5108066;27;45625;-63
2022/06/22 08:44:02;;;;;;;;;7.00;3.00;;;;;24.97;42.49;100424.28;5102615;27;45723;-63
2022/06/22 08:46:44;;;;;;;;;2.00;2.00;;;;;25.01;42.49;100411.44;5102168;27;45385;-63
2022/06/22 08:49:35;;;;;;;;;3.75;3.00;;;;;25.06;42.35;100405.69;5108496;27;45376;-63
2022/06/22 08:52:08;;;;;;;;;2.25;2.25;;;;;25.08;42.55;100398.34;5112879;27;47101;-64
2022/06/22 08:55:01;;;;;;;;;2.25;2.25;;;;;25.09;42.25;100392.84;5113238;27;45683;-63
2022/06/22 08:57:32;;;;;;;;;1.00;1.00;;;;;25.13;42.47;100401.44;5113088;27;45823;-62
2022/06/22 09:00:14;;;;;;;;;4.00;4.00;;;;;25.13;42.17;100404.13;5100493;27;45575;-63
2022/06/22 09:02:58;;;;;;;;;2.50;1.25;;;;;25.13;42.27;100413.00;5122176;27;46422;-64
2022/06/22 09:05:36;;;;;;;;;2.25;2.00;;;;;25.13;42.27;100417.50;5107824;27;45278;-62
2022/06/22 09:08:23;;;;;;;;;3.00;1.00;;;;;25.14;42.22;100412.00;5117065;27;45546;-62
2022/06/22 09:10:52;;;;;;;;;2.25;1.50;;;;;25.16;42.13;100414.50;5094810;27;45335;-63
2022/06/22 09:14:07;;;;;;;;;2.00;2.00;;;;;25.15;42.10;100418.19;5110401;27;46068;-63
2022/06/22 09:16:35;;;;;;;;;1.75;1.50;;;;;25.16;42.18;100423.41;5089466;27;45377;-63
2022/06/22 09:19:19;;;;;;;;;2.00;2.00;;;;;25.17;42.31;100416.22;5107253;27;45626;-63
2022/06/22 09:22:13;;;;;;;;;2.00;1.25;;;;;25.17;42.38;100413.53;5112059;27;45455;-63
2022/06/22 09:25:16;;;;;;;;;1.25;0.25;;;;;25.17;42.25;100414.38;5107789;27;45613;-63
2022/06/22 09:27:46;;;;;;;;;2.00;1.50;;;;;25.17;42.34;100410.88;5106263;27;45984;-63
2022/06/22 09:30:24;;;;;;;;;3.00;1.25;;;;;25.19;42.24;100408.88;5107978;27;45901;-63
2022/06/22 09:33:11;;;;;;;;;0.25;0.25;;;;;25.18;42.29;100415.25;5107937;27;45367;-63
2022/06/22 09:36:08;;;;;;;;;1.50;1.50;;;;;25.18;42.35;100413.41;5109259;27;45461;-63
2022/06/22 09:38:39;;;;;;;;;1.00;1.00;;;;;25.24;42.35;100422.69;5108339;27;45363;-63
2022/06/22 09:41:25;;;;;;;;;2.50;2.00;;;;;25.29;42.06;100422.28;5110621;27;45395;-63
2022/06/22 09:44:18;;;;;;;;;3.00;1.00;;;;;25.36;42.00;100431.44;5103268;27;45279;-63
2022/06/22 09:46:50;;;;;;;;;1.00;1.00;;;;;25.37;41.93;100433.13;5116443;27;47111;-63
2022/06/22 09:49:26;;;;;;;;;4.50;1.50;;;;;25.38;41.99;100432.13;5108230;27;45425;-63
2022/06/22 09:52:04;;;;;;;;;1.50;1.50;;;;;25.38;41.99;100432.97;5104280;27;45496;-63
2022/06/22 09:57:32;;;;;;;;;1.00;1.00;;;;;25.37;41.91;100425.94;5109540;27;45893;-63
2022/06/22 10:00:08;;;;;;;;;1.25;1.25;;;;;25.39;41.98;100425.78;5112459;27;45312;-64
2022/06/22 10:03:10;;;;;;;;;0.25;0.25;;;;;25.41;41.83;100420.28;5089114;27;45288;-63
2022/06/22 10:06:10;;;;;;;;;3.00;3.00;;;;;25.44;41.93;100420.81;5107135;27;45421;-63
2022/06/22 10:08:42;;;;;;;;;3.00;1.75;;;;;25.50;41.90;100414.91;5112039;27;46137;-63
2022/06/22 10:11:23;;;;;;;;;1.75;1.75;;;;;25.54;41.76;100413.59;5113194;27;45924;-63
2022/06/22 10:14:10;;;;;;;;;2.25;1.00;;;;;25.57;41.85;100418.69;5115162;27;45420;-64
2022/06/22 10:16:44;;;;;;;;;2.00;1.00;;;;;25.61;41.92;100419.22;5104500;27;45776;-63
2022/06/22 10:19:33;;;;;;;;;0.75;0.25;;;;;25.65;41.75;100417.94;5103430;27;47576;-63
2022/06/22 10:22:10;;;;;;;;;1.75;1.50;;;;;25.68;41.70;100417.66;5104868;27;45889;-63
2022/06/22 10:24:54;;;;;;;;;2.50;0.50;;;;;25.71;41.61;100409.31;5110114;27;45380;-64
2022/06/22 10:27:43;;;;;;;;;0.25;0.25;;;;;25.73;41.57;100409.19;5123259;27;45477;-63
2022/06/22 10:30:32;;;;;;;;;1.25;0.25;;;;;25.71;41.86;100409.31;5117196;27;45978;-64
2022/06/22 10:33:35;;;;;;;;;1.00;1.00;;;;;25.70;41.91;100418.34;5104184;27;45791;-63
2022/06/22 10:36:12;;;;;;;;;0.25;0.25;;;;;25.68;41.59;100416.81;5108332;27;45465;-63
2022/06/22 10:39:02;;;;;;;;;1.00;1.00;;;;;25.68;41.78;100417.66;5106313;27;46281;-63
2022/06/22 10:47:54;;;;;;;;;3.75;1.75;;;;;25.82;41.56;100394.03;5107798;27;45452;-63
2022/06/22 10:50:44;;;;;;;;;3.50;2.75;;;;;26.17;41.57;100397.81;5109160;27;46042;-62
2022/06/22 10:53:12;;;;;;;;;0.00;0.00;;;;;26.19;40.98;100398.50;5112930;27;46288;-62
2022/06/22 10:55:59;;;;;;;;;2.00;2.00;;;;;26.10;40.89;100397.56;5105038;27;45505;-62
2022/06/22 10:58:40;;;;;;;;;5.25;4.00;;;;;26.29;40.74;100388.53;5110526;27;45408;-62
2022/06/22 11:01:13;;;;;;;;;3.75;3.00;;;;;26.82;40.48;100382.34;5107443;27;45665;-61
2022/06/22 11:03:51;;;;;;;;;5.75;5.75;;;;;26.67;39.80;100382.06;5109301;27;47070;-61
2022/06/22 11:06:46;;;;;;;;;1.75;1.75;;;;;26.51;40.68;100377.38;5105730;27;45292;-61
2022/06/22 11:09:35;;;;;;;;;1.50;1.00;;;;;26.44;41.06;100376.28;5105211;27;46501;-60
2022/06/22 11:12:27;;;;;;;;;2.75;2.00;;;;;26.44;41.03;100378.16;5104463;27;45570;-60
2022/06/22 11:15:17;;;;;;;;;2.00;2.00;;;;;26.41;40.53;100384.63;5105335;27;47157;-60
2022/06/22 11:17:55;;;;;;;;;3.00;3.00;;;;;26.44;40.74;100383.50;5103956;27;46051;-61
2022/06/22 11:20:55;;;;;;;;;0.25;0.25;;;;;26.47;40.79;100375.13;5107109;27;45462;-62
2022/06/22 11:23:36;;;;;;;;;3.75;1.25;;;;;26.49;40.93;100381.22;5089351;27;45647;-61
2022/06/22 11:32:34;;;;;;;;;1.00;1.00;;;;;26.63;41.17;100379.84;5105258;27;45860;-61
2022/06/22 11:35:18;;;;;;;;;0.75;0.75;;;;;26.59;40.62;100378.44;5107031;27;45446;-62
2022/06/22 11:38:05;;;;;;;;;1.75;1.25;;;;;26.50;40.68;100389.09;5112001;27;46342;-62
2022/06/22 11:40:46;;;;;;;;;1.00;1.00;;;;;26.41;40.76;100387.31;5106378;27;45424;-62
2022/06/22 11:43:33;;;;;;;;;1.00;1.00;;;;;26.33;41.30;100390.78;5108127;27;45658;-62
2022/06/22 11:46:18;;;;;;;;;5.75;4.00;;;;;26.26;41.10;100383.47;5112218;27;45438;-61
2022/06/22 11:48:54;;;;;;;;;4.25;3.75;;;;;26.20;41.31;100392.97;5108157;27;47307;-61
2022/06/22 11:51:50;;;;;;;;;4.50;4.50;;;;;26.14;41.26;100389.06;5103747;27;45929;-62
2022/06/22 11:54:19;;;;;;;;;3.00;3.00;;;;;26.11;41.48;100377.81;5109247;27;46489;-61
2022/06/22 11:56:56;;;;;;;;;6.25;3.25;;;;;26.09;41.51;100383.31;5103275;27;46154;-71
2022/06/22 11:59:40;;;;;;;;;1.50;1.50;;;;;26.06;41.85;100388.97;5106428;27;45926;-66
2022/06/22 12:02:39;;;;;;;;;3.50;3.00;;;;;26.05;41.65;100375.75;5109623;27;45380;-67
2022/06/22 12:05:19;;;;;;;;;2.75;1.00;;;;;26.03;41.69;100383.94;5104732;27;45401;-67
2022/06/22 12:08:04;;;;;;;;;3.00;1.00;;;;;26.01;41.87;100388.59;5102783;27;45453;-66
2022/06/22 12:10:40;;;;;;;;;2.00;2.00;;;;;26.00;41.90;100380.72;5116185;27;45329;-67
2022/06/22 12:13:11;;;;;;;;;2.00;1.25;;;;;25.98;42.04;100390.75;5102312;27;45703;-68
2022/06/22 12:15:39;;;;;;;;;1.25;1.25;;;;;25.95;41.99;100390.03;5106497;27;45429;-69
2022/06/22 12:18:11;;;;;;;;;3.25;2.25;;;;;25.93;41.88;100392.00;5110918;27;45524;-68
2022/06/22 12:21:18;;;;;;;;;3.25;3.25;;;;;25.93;42.01;100401.88;5108112;27;47686;-67
2022/06/22 12:24:07;;;;;;;;;0.25;0.25;;;;;25.90;42.11;100408.34;5107073;27;45396;-67